createdAt,value
2017-09-10T00:00:20.898Z,48.69
2017-09-10T00:02:51.921Z,48.73
2017-09-10T00:05:23.632Z,48.90
2017-09-10T00:07:54.983Z,49.09
2017-09-10T00:10:26.164Z,49.15
2017-09-10T00:12:57.892Z,48.99
2017-09-10T00:15:31.037Z,49.73
2017-09-10T00:18:03.053Z,49.70
2017-09-10T00:20:34.785Z,49.82
2017-09-10T00:23:06.572Z,50.14
2017-09-10T00:25:38.539Z,49.92
2017-09-10T00:28:11.717Z,49.99
2017-09-10T00:30:43.686Z,50.11
2017-09-10T00:33:18.045Z,49.89
2017-09-10T00:35:51.053Z,50.01
2017-09-10T00:38:23.220Z,50.40
2017-09-10T00:40:55.246Z,50.78
2017-09-10T00:43:28.702Z,50.01
2017-09-10T00:46:06.553Z,49.71
2017-09-10T00:48:39.855Z,49.61
2017-09-10T00:51:14.470Z,49.58
2017-09-10T00:53:46.725Z,49.25
2017-09-10T00:56:20.037Z,49.17
2017-09-10T00:58:51.728Z,49.11
2017-09-10T01:01:24.642Z,49.33
2017-09-10T01:03:56.529Z,49.26
2017-09-10T01:06:28.516Z,49.36
2017-09-10T01:09:00.392Z,49.05
2017-09-10T01:11:33.201Z,48.82
2017-09-10T01:14:04.853Z,49.20
2017-09-10T01:16:37.114Z,49.21
2017-09-10T01:19:09.126Z,48.98
2017-09-10T01:21:40.542Z,48.84
2017-09-10T01:24:16.608Z,48.52
2017-09-10T01:26:49.199Z,48.46
2017-09-10T01:29:21.241Z,48.55
2017-09-10T01:31:53.262Z,48.78
2017-09-10T01:34:24.346Z,48.87
2017-09-10T01:36:56.525Z,48.67
2017-09-10T01:39:27.796Z,48.60
2017-09-10T01:42:00.821Z,48.43
2017-09-10T01:44:31.916Z,48.62
2017-09-10T01:47:03.741Z,48.76
2017-09-10T01:49:35.301Z,48.42
2017-09-10T01:52:07.200Z,48.46
2017-09-10T01:54:39.224Z,48.85
2017-09-10T01:57:12.614Z,48.72
2017-09-10T01:59:44.460Z,48.38
2017-09-10T02:02:18.118Z,48.10
2017-09-10T02:04:49.861Z,48.45
2017-09-10T02:07:23.458Z,48.08
2017-09-10T02:09:54.759Z,47.97
2017-09-10T02:12:26.528Z,48.19
2017-09-10T02:14:58.134Z,48.32
2017-09-10T02:17:30.822Z,48.50
2017-09-10T02:20:03.169Z,48.67
2017-09-10T02:22:35.056Z,49.43
2017-09-10T02:25:06.824Z,48.33
2017-09-10T02:27:38.661Z,48.76
2017-09-10T02:30:10.280Z,48.62
2017-09-10T02:32:42.504Z,49.30
2017-09-10T02:35:17.623Z,49.19
2017-09-10T02:37:49.112Z,48.35
2017-09-10T02:40:20.897Z,48.43
2017-09-10T02:42:52.581Z,47.86
2017-09-10T02:45:23.971Z,48.23
2017-09-10T02:47:55.505Z,47.79
2017-09-10T02:50:27.198Z,47.95
2017-09-10T02:52:58.904Z,47.96
2017-09-10T02:55:30.973Z,48.34
2017-09-10T02:58:02.563Z,48.44
2017-09-10T03:00:34.181Z,48.40
2017-09-10T03:03:05.770Z,47.66
2017-09-10T03:05:37.453Z,47.56
2017-09-10T03:08:09.265Z,48.05
2017-09-10T03:10:40.907Z,47.82
2017-09-10T03:13:14.573Z,47.85
2017-09-10T03:15:46.284Z,47.67
2017-09-10T03:18:18.280Z,47.58
2017-09-10T03:20:50.258Z,47.91
2017-09-10T03:23:21.934Z,47.40
2017-09-10T03:25:53.808Z,48.37
2017-09-10T03:28:26.002Z,48.02
2017-09-10T03:30:57.840Z,47.41
2017-09-10T03:33:29.555Z,48.11
2017-09-10T03:36:01.755Z,47.56
2017-09-10T03:38:33.849Z,47.10
2017-09-10T03:41:05.401Z,47.72
2017-09-10T03:43:37.360Z,48.06
2017-09-10T03:46:09.210Z,48.35
2017-09-10T03:48:41.018Z,47.91
2017-09-10T03:51:15.612Z,47.89
2017-09-10T03:53:47.877Z,48.40
2017-09-10T03:56:19.468Z,47.77
2017-09-10T03:58:51.874Z,47.51
2017-09-10T04:01:23.506Z,47.04
2017-09-10T04:03:54.638Z,47.27
2017-09-10T04:06:26.133Z,47.08
2017-09-10T04:08:58.081Z,47.43
2017-09-10T04:11:29.891Z,47.46
2017-09-10T04:14:01.760Z,48.07
2017-09-10T04:16:33.651Z,48.15
2017-09-10T04:19:05.034Z,47.77
2017-09-10T04:21:36.365Z,48.14
2017-09-10T04:24:08.261Z,48.05
2017-09-10T04:26:39.911Z,48.06
2017-09-10T04:29:13.153Z,47.86
2017-09-10T04:31:45.433Z,47.59
2017-09-10T04:34:18.577Z,47.73
2017-09-10T04:36:50.472Z,47.76
2017-09-10T04:39:22.247Z,48.82
2017-09-10T04:41:53.982Z,48.22
2017-09-10T04:44:25.847Z,47.55
2017-09-10T04:46:58.210Z,47.73
2017-09-10T04:49:29.835Z,47.46
2017-09-10T04:52:01.984Z,48.61
2017-09-10T04:54:33.429Z,48.04
2017-09-10T04:57:05.255Z,47.87
2017-09-10T04:59:38.027Z,48.22
2017-09-10T05:02:11.044Z,48.19
2017-09-10T05:04:43.044Z,48.15
2017-09-10T05:07:16.361Z,48.41
2017-09-10T05:09:47.944Z,47.74
2017-09-10T05:12:20.539Z,48.54
2017-09-10T05:14:53.676Z,48.39
2017-09-10T05:17:25.817Z,48.04
2017-09-10T05:19:57.361Z,48.34
2017-09-10T05:22:29.017Z,48.50
2017-09-10T05:25:00.915Z,47.92
2017-09-10T05:27:32.694Z,48.42
2017-09-10T05:30:04.968Z,47.95
2017-09-10T05:32:37.106Z,47.96
2017-09-10T05:35:10.004Z,47.86
2017-09-10T05:37:43.425Z,48.82
2017-09-10T05:40:17.440Z,48.33
2017-09-10T05:42:49.180Z,48.26
2017-09-10T05:45:21.250Z,47.53
2017-09-10T05:48:04.051Z,47.58
2017-09-10T05:50:39.720Z,47.40
2017-09-10T05:53:21.191Z,47.58
2017-09-10T05:55:53.050Z,47.92
2017-09-10T05:58:35.783Z,47.14
2017-09-10T06:01:15.743Z,47.43
2017-09-10T06:04:01.529Z,47.55
2017-09-10T06:06:41.742Z,47.32
2017-09-10T06:09:16.985Z,48.55
2017-09-10T06:11:55.873Z,48.48
2017-09-10T06:14:32.376Z,48.23
2017-09-10T06:17:12.014Z,48.02
2017-09-10T06:20:12.131Z,47.87
2017-09-10T06:27:04.880Z,47.29
2017-09-10T06:29:41.053Z,47.48
2017-09-10T06:32:18.250Z,47.41
2017-09-10T06:35:01.000Z,47.31
2017-09-10T06:37:48.214Z,47.26
2017-09-10T06:40:23.330Z,47.23
2017-09-10T06:43:04.108Z,47.17
2017-09-10T06:45:43.794Z,47.12
2017-09-10T06:48:34.679Z,47.09
2017-09-10T06:51:06.490Z,47.13
2017-09-10T06:53:58.071Z,47.10
2017-09-10T06:56:33.312Z,47.13
2017-09-10T07:02:08.991Z,47.35
2017-09-10T07:04:48.018Z,47.43
2017-09-10T07:07:48.449Z,47.48
2017-09-10T07:10:46.852Z,47.42
2017-09-10T07:13:28.444Z,47.51
2017-09-10T07:16:02.826Z,47.31
2017-09-10T07:18:33.972Z,47.23
2017-09-10T07:21:05.360Z,47.23
2017-09-10T07:23:41.492Z,47.22
2017-09-10T07:26:16.943Z,47.86
2017-09-10T07:28:48.791Z,49.43
2017-09-10T07:31:20.419Z,48.11
2017-09-10T07:33:54.199Z,47.94
2017-09-10T07:36:28.167Z,46.06
2017-09-10T07:39:00.555Z,46.62
2017-09-10T07:41:33.268Z,46.07
2017-09-10T07:44:05.075Z,46.39
2017-09-10T07:46:36.623Z,48.27
2017-09-10T07:49:08.376Z,49.66
2017-09-10T07:51:39.970Z,51.72
2017-09-10T07:54:13.941Z,51.63
2017-09-10T07:56:46.302Z,50.38
2017-09-10T07:59:17.790Z,49.20
2017-09-10T08:01:50.062Z,48.62
2017-09-10T08:04:21.606Z,48.02
2017-09-10T08:06:52.886Z,47.74
2017-09-10T08:09:25.209Z,47.62
2017-09-10T08:11:59.063Z,47.29
2017-09-10T08:14:30.162Z,47.14
2017-09-10T08:17:01.238Z,47.07
2017-09-10T08:19:33.062Z,46.73
2017-09-10T08:22:04.141Z,46.72
2017-09-10T08:24:36.151Z,46.65
2017-09-10T08:27:08.897Z,46.11
2017-09-10T08:29:44.893Z,46.45
2017-09-10T08:32:17.560Z,46.35
2017-09-10T08:34:49.017Z,46.18
2017-09-10T08:37:20.203Z,45.93
2017-09-10T08:39:51.460Z,46.16
2017-09-10T08:42:23.405Z,46.17
2017-09-10T08:45:00.229Z,46.06
2017-09-10T08:47:32.024Z,45.79
2017-09-10T08:50:04.711Z,45.71
2017-09-10T08:52:37.563Z,45.62
2017-09-10T08:55:12.533Z,45.50
2017-09-10T08:57:45.495Z,45.54
2017-09-10T09:00:18.105Z,45.37
2017-09-10T09:02:50.067Z,45.50
2017-09-10T09:05:46.620Z,45.21
2017-09-10T09:14:19.122Z,44.49
2017-09-10T09:16:52.323Z,45.37
2017-09-10T09:19:28.997Z,44.75
2017-09-10T09:22:05.861Z,45.02
2017-09-10T09:24:42.441Z,44.90
2017-09-10T09:27:17.229Z,44.42
2017-09-10T09:29:56.944Z,44.23
2017-09-10T09:32:43.044Z,44.29
2017-09-10T09:35:23.385Z,43.87
2017-09-10T09:37:59.311Z,43.94
2017-09-10T09:46:09.245Z,44.06
2017-09-10T09:48:49.191Z,44.20
2017-09-10T09:51:30.897Z,44.13
2017-09-10T09:54:19.135Z,44.01
2017-09-10T09:56:56.734Z,44.02
2017-09-10T09:59:33.308Z,43.78
2017-09-10T10:02:18.319Z,43.83
2017-09-10T10:04:54.036Z,43.71
2017-09-10T10:10:43.850Z,43.68
2017-09-10T10:16:17.382Z,43.50
2017-09-10T10:19:15.565Z,43.52
2017-09-10T10:21:47.803Z,43.54
2017-09-10T10:24:22.056Z,43.32
2017-09-10T10:29:47.604Z,43.23
2017-09-10T10:32:27.202Z,42.92
2017-09-10T10:35:09.366Z,43.03
2017-09-10T10:37:43.780Z,43.25
2017-09-10T10:40:34.385Z,43.17
2017-09-10T10:43:27.449Z,42.98
2017-09-10T10:46:22.394Z,42.76
2017-09-10T10:48:55.715Z,42.95
2017-09-10T10:51:32.223Z,42.90
2017-09-10T10:54:07.487Z,42.86
2017-09-10T10:56:44.595Z,42.69
2017-09-10T10:59:30.871Z,42.64
2017-09-10T11:02:07.845Z,42.88
2017-09-10T11:04:42.680Z,42.40
2017-09-10T11:07:23.355Z,42.63
2017-09-10T11:10:16.117Z,42.57
2017-09-10T11:13:19.108Z,42.51
2017-09-10T11:15:50.633Z,42.60
2017-09-10T11:18:27.864Z,42.74
2017-09-10T11:21:03.416Z,42.72
2017-09-10T11:23:41.625Z,42.69
2017-09-10T11:26:17.597Z,42.61
2017-09-10T11:29:01.334Z,42.56
2017-09-10T11:31:40.869Z,42.85
2017-09-10T11:34:27.375Z,42.67
2017-09-10T11:37:08.582Z,42.62
2017-09-10T11:42:31.468Z,42.84
2017-09-10T11:45:12.274Z,42.53
2017-09-10T11:47:51.565Z,42.31
2017-09-10T11:50:30.487Z,42.53
2017-09-10T11:53:21.565Z,42.32
2017-09-10T11:56:01.875Z,42.25
2017-09-10T11:58:37.214Z,42.25
2017-09-10T12:01:16.983Z,42.43
2017-09-10T12:06:49.994Z,42.19
2017-09-10T12:09:27.241Z,42.02
2017-09-10T12:12:02.347Z,42.29
2017-09-10T12:14:40.441Z,42.42
2017-09-10T12:17:22.040Z,42.33
2017-09-10T12:19:56.590Z,42.22
2017-09-10T12:22:33.741Z,42.60
2017-09-10T12:25:20.967Z,42.12
2017-09-10T12:27:59.184Z,42.00
2017-09-10T12:30:34.836Z,42.33
2017-09-10T12:33:12.984Z,42.07
2017-09-10T12:35:48.079Z,42.34
2017-09-10T12:38:35.308Z,42.14
2017-09-10T12:43:16.001Z,41.83
2017-09-10T12:46:03.964Z,42.03
2017-09-10T12:48:37.756Z,41.56
2017-09-10T12:51:17.523Z,41.86
2017-09-10T12:57:57.191Z,42.22
2017-09-10T13:00:51.614Z,41.62
2017-09-10T13:03:28.696Z,41.38
2017-09-10T13:06:02.471Z,41.56
2017-09-10T13:08:44.993Z,41.49
2017-09-10T13:11:22.491Z,41.55
2017-09-10T13:13:57.059Z,41.20
2017-09-10T13:16:34.302Z,41.09
2017-09-10T13:21:53.508Z,41.52
2017-09-10T13:24:34.683Z,41.25
2017-09-10T13:27:23.443Z,41.10
2017-09-10T13:29:57.773Z,41.46
2017-09-10T13:32:42.430Z,41.16
2017-09-10T13:35:20.051Z,41.05
2017-09-10T13:38:00.833Z,41.13
2017-09-10T13:40:51.832Z,41.24
2017-09-10T13:43:29.006Z,40.72
2017-09-10T13:46:13.781Z,41.11
2017-09-10T13:48:53.847Z,41.41
2017-09-10T13:51:43.416Z,41.00
2017-09-10T13:55:12.414Z,40.72
2017-09-10T13:57:47.640Z,40.77
2017-09-10T14:00:22.308Z,40.93
2017-09-10T14:03:01.849Z,41.15
2017-09-10T14:05:40.033Z,41.15
2017-09-10T14:08:24.629Z,40.27
2017-09-10T14:11:03.048Z,40.76
2017-09-10T14:13:44.447Z,40.73
2017-09-10T14:19:57.998Z,40.16
2017-09-10T14:22:35.833Z,40.61
2017-09-10T14:25:14.422Z,40.60
2017-09-10T14:27:47.834Z,40.32
2017-09-10T14:30:31.010Z,40.36
2017-09-10T14:33:09.267Z,40.35
2017-09-10T14:35:46.810Z,40.26
2017-09-10T14:38:25.428Z,40.25
2017-09-10T14:41:04.229Z,40.36
2017-09-10T14:43:39.599Z,40.12
2017-09-10T14:46:32.845Z,40.34
2017-09-10T14:49:15.774Z,40.11
2017-09-10T14:51:49.735Z,39.98
2017-09-10T14:54:31.173Z,40.05
2017-09-10T14:57:21.590Z,40.19
2017-09-10T14:59:57.541Z,40.28
2017-09-10T15:02:33.789Z,40.08
2017-09-10T15:05:08.648Z,40.34
2017-09-10T15:07:52.897Z,40.37
2017-09-10T15:10:28.028Z,40.18
2017-09-10T15:13:09.211Z,40.35
2017-09-10T15:16:09.038Z,40.14
2017-09-10T15:18:48.345Z,40.09
2017-09-10T15:21:27.199Z,40.09
2017-09-10T15:24:04.702Z,39.97
2017-09-10T15:26:45.483Z,40.10
2017-09-10T15:29:38.941Z,40.09
2017-09-10T15:32:19.930Z,40.46
2017-09-10T15:34:57.731Z,40.43
2017-09-10T15:37:37.271Z,40.11
2017-09-10T15:40:15.718Z,40.05
2017-09-10T15:42:47.642Z,40.92
2017-09-10T15:45:20.621Z,40.10
2017-09-10T15:49:15.960Z,39.78
2017-09-10T15:51:47.513Z,40.19
2017-09-10T15:54:20.099Z,39.92
2017-09-10T15:56:52.000Z,40.12
2017-09-10T15:59:23.297Z,40.10
2017-09-10T16:01:56.399Z,39.94
2017-09-10T16:04:29.409Z,39.93
2017-09-10T16:07:01.435Z,39.82
2017-09-10T16:09:32.810Z,39.91
2017-09-10T16:12:05.580Z,40.14
2017-09-10T16:14:37.641Z,39.92
2017-09-10T16:17:09.983Z,39.92
2017-09-10T16:19:41.111Z,39.88
2017-09-10T16:22:15.314Z,39.98
2017-09-10T16:24:46.552Z,40.26
2017-09-10T16:27:17.881Z,40.20
2017-09-10T16:29:50.202Z,40.08
2017-09-10T16:32:21.551Z,40.34
2017-09-10T16:34:53.165Z,40.32
2017-09-10T16:37:24.201Z,40.17
2017-09-10T16:39:56.325Z,40.59
2017-09-10T16:42:28.395Z,40.34
2017-09-10T16:44:59.873Z,40.37
2017-09-10T16:47:31.493Z,40.16
2017-09-10T16:50:03.128Z,40.55
2017-09-10T16:52:35.173Z,40.30
2017-09-10T16:55:06.791Z,40.37
2017-09-10T16:57:39.210Z,40.42
2017-09-10T17:00:13.715Z,40.43
2017-09-10T17:02:45.097Z,40.37
2017-09-10T17:05:18.213Z,40.61
2017-09-10T17:07:50.486Z,40.67
2017-09-10T17:10:21.764Z,40.58
2017-09-10T17:12:53.293Z,40.33
2017-09-10T17:15:24.468Z,40.46
2017-09-10T17:17:55.873Z,40.49
2017-09-10T17:20:27.937Z,40.49
2017-09-10T17:22:59.383Z,40.45
2017-09-10T17:25:30.753Z,40.47
2017-09-10T17:28:02.315Z,40.64
2017-09-10T17:30:33.343Z,40.52
2017-09-10T17:33:05.201Z,40.71
2017-09-10T17:35:36.549Z,40.69
2017-09-10T17:38:08.178Z,40.76
2017-09-10T17:40:39.391Z,40.83
2017-09-10T17:43:10.544Z,40.89
2017-09-10T17:45:41.936Z,40.93
2017-09-10T17:48:16.766Z,40.99
2017-09-10T17:50:48.533Z,40.98
2017-09-10T17:53:20.132Z,41.11
2017-09-10T17:55:51.228Z,41.32
2017-09-10T17:58:22.810Z,41.31
2017-09-10T18:00:54.229Z,41.20
2017-09-10T18:03:25.754Z,41.15
2017-09-10T18:05:56.807Z,41.22
2017-09-10T18:08:28.647Z,41.22
2017-09-10T18:10:59.883Z,41.17
2017-09-10T18:13:32.445Z,41.28
2017-09-10T18:16:03.596Z,41.38
2017-09-10T18:18:35.743Z,41.46
2017-09-10T18:21:07.670Z,41.43
2017-09-10T18:23:38.916Z,41.35
2017-09-10T18:26:18.387Z,41.38
2017-09-10T18:28:50.383Z,41.35
2017-09-10T18:31:22.869Z,41.35
2017-09-10T18:33:54.497Z,41.25
2017-09-10T18:36:26.475Z,41.46
2017-09-10T18:38:58.210Z,41.38
2017-09-10T18:41:31.505Z,41.39
2017-09-10T18:44:05.813Z,41.40
2017-09-10T18:46:45.809Z,41.41
2017-09-10T18:49:19.988Z,41.42
2017-09-10T18:52:41.736Z,41.28
2017-09-10T18:55:16.397Z,41.26
2017-09-10T19:01:34.552Z,41.31
2017-09-10T19:04:30.212Z,41.22
2017-09-10T19:07:21.111Z,41.04
2017-09-10T19:09:52.646Z,41.19
2017-09-10T19:12:35.942Z,41.27
2017-09-10T19:15:07.228Z,41.28
2017-09-10T19:17:38.660Z,41.58
2017-09-10T19:20:13.393Z,41.75
2017-09-10T19:22:45.272Z,41.74
2017-09-10T19:25:19.276Z,41.68
2017-09-10T19:27:50.538Z,41.75
2017-09-10T19:30:22.850Z,41.67
2017-09-10T19:32:54.862Z,41.84
2017-09-10T19:35:31.275Z,41.96
2017-09-10T19:38:03.376Z,41.81
2017-09-10T19:40:35.422Z,41.88
2017-09-10T19:43:07.225Z,42.06
2017-09-10T19:45:38.973Z,41.96
2017-09-10T19:48:13.280Z,41.96
2017-09-10T19:50:45.901Z,42.34
2017-09-10T19:53:18.211Z,42.17
2017-09-10T19:55:51.115Z,42.14
2017-09-10T19:58:27.478Z,42.15
2017-09-10T20:00:59.104Z,42.13
2017-09-10T20:03:32.164Z,42.13
2017-09-10T20:06:03.689Z,42.29
2017-09-10T20:08:35.068Z,42.15
2017-09-10T20:11:06.627Z,42.08
2017-09-10T20:13:38.406Z,42.25
2017-09-10T20:16:14.033Z,42.38
2017-09-10T20:18:45.860Z,42.51
2017-09-10T20:21:18.384Z,42.35
2017-09-10T20:23:50.249Z,42.47
2017-09-10T20:26:27.867Z,42.27
2017-09-10T20:29:00.878Z,42.25
2017-09-10T20:31:32.707Z,42.24
2017-09-10T20:34:04.072Z,42.34
2017-09-10T20:36:36.424Z,42.31
2017-09-10T20:39:08.399Z,42.28
2017-09-10T20:41:39.723Z,42.39
2017-09-10T20:44:13.357Z,42.33
2017-09-10T20:46:45.689Z,42.42
2017-09-10T20:49:17.902Z,42.39
2017-09-10T20:51:49.096Z,42.60
2017-09-10T20:54:20.378Z,42.61
2017-09-10T20:56:51.366Z,42.75
2017-09-10T20:59:23.293Z,42.45
2017-09-10T21:01:54.409Z,42.43
2017-09-10T21:04:26.333Z,42.39
2017-09-10T21:06:58.119Z,42.55
2017-09-10T21:09:29.999Z,42.59
2017-09-10T21:12:01.137Z,42.58
2017-09-10T21:14:32.857Z,42.56
2017-09-10T21:17:05.120Z,43.29
2017-09-10T21:19:37.718Z,42.87
2017-09-10T21:22:09.294Z,43.08
2017-09-10T21:24:40.696Z,43.00
2017-09-10T21:28:36.852Z,43.00
2017-09-10T21:31:08.513Z,42.75
2017-09-10T21:33:41.572Z,42.79
2017-09-10T21:36:12.783Z,42.80
2017-09-10T21:38:44.615Z,42.96
2017-09-10T21:41:18.086Z,42.74
2017-09-10T21:43:49.377Z,43.01
2017-09-10T21:46:20.671Z,43.08
2017-09-10T21:48:52.467Z,42.98
2017-09-10T21:51:24.680Z,42.97
2017-09-10T21:53:55.866Z,43.03
2017-09-10T21:56:27.566Z,43.03
2017-09-10T21:58:58.949Z,42.93
2017-09-10T22:01:30.490Z,42.84
2017-09-10T22:04:02.454Z,42.77
2017-09-10T22:06:34.293Z,42.92
2017-09-10T22:09:06.953Z,42.86
2017-09-10T22:11:38.200Z,42.94
2017-09-10T22:14:11.283Z,43.05
2017-09-10T22:16:42.288Z,43.12
2017-09-10T22:19:15.492Z,43.10
2017-09-10T22:21:46.477Z,43.03
2017-09-10T22:24:19.032Z,43.14
2017-09-10T22:26:50.553Z,42.93
2017-09-10T22:29:22.040Z,42.96
2017-09-10T22:31:53.766Z,42.96
2017-09-10T22:34:25.650Z,42.94
2017-09-10T22:36:57.219Z,42.91
2017-09-10T22:39:28.874Z,43.98
2017-09-10T22:42:00.601Z,44.08
2017-09-10T22:44:33.580Z,43.82
2017-09-10T22:47:05.708Z,43.73
2017-09-10T22:49:38.148Z,43.63
2017-09-10T22:52:11.788Z,43.74
2017-09-10T22:54:43.600Z,43.94
2017-09-10T22:57:18.852Z,43.87
2017-09-10T22:59:50.478Z,43.85
2017-09-10T23:02:22.079Z,43.84
2017-09-10T23:04:54.342Z,43.91
2017-09-10T23:07:26.631Z,43.88
2017-09-10T23:09:58.457Z,43.82
2017-09-10T23:12:30.129Z,43.79
2017-09-10T23:15:01.788Z,44.11
2017-09-10T23:17:33.354Z,43.98
2017-09-10T23:20:05.324Z,44.09
2017-09-10T23:22:37.646Z,44.13
2017-09-10T23:25:09.433Z,44.01
2017-09-10T23:27:41.967Z,44.29
2017-09-10T23:30:14.964Z,44.09
2017-09-10T23:32:46.986Z,44.17
2017-09-10T23:35:19.932Z,44.32
2017-09-10T23:37:52.086Z,44.25
2017-09-10T23:40:25.290Z,44.33
2017-09-10T23:42:57.151Z,44.13
2017-09-10T23:45:28.881Z,44.13
2017-09-10T23:48:00.994Z,44.05
2017-09-10T23:50:33.142Z,44.12
2017-09-10T23:53:04.811Z,44.28
2017-09-10T23:55:36.482Z,44.39
2017-09-10T23:58:08.439Z,44.47
